sensor_id;sensor_type;location;lat;lon;timestamp;P1;durP1;ratioP1;P2;durP2;ratioP2
27209;SDS011;14721;42.668;23.386;2022-12-24T00:02:00;16.47;;;8.93;;
27209;SDS011;14721;42.668;23.386;2022-12-24T00:04:28;22.90;;;7.80;;
27209;SDS011;14721;42.668;23.386;2022-12-24T00:06:54;17.27;;;8.33;;
27209;SDS011;14721;42.668;23.386;2022-12-24T00:09:21;17.67;;;9.20;;
27209;SDS011;14721;42.668;23.386;2022-12-24T00:11:46;11.23;;;6.43;;
27209;SDS011;14721;42.668;23.386;2022-12-24T00:14:12;20.80;;;8.70;;
27209;SDS011;14721;42.668;23.386;2022-12-24T00:16:39;23.10;;;10.40;;
27209;SDS011;14721;42.668;23.386;2022-12-24T00:19:05;13.60;;;6.90;;
27209;SDS011;14721;42.668;23.386;2022-12-24T00:21:31;15.00;;;8.27;;
27209;SDS011;14721;42.668;23.386;2022-12-24T00:23:58;19.17;;;7.73;;
27209;SDS011;14721;42.668;23.386;2022-12-24T00:26:24;15.70;;;7.53;;
27209;SDS011;14721;42.668;23.386;2022-12-24T00:28:50;20.10;;;7.70;;
27209;SDS011;14721;42.668;23.386;2022-12-24T00:31:17;23.17;;;10.87;;
27209;SDS011;14721;42.668;23.386;2022-12-24T00:33:46;18.00;;;8.67;;
27209;SDS011;14721;42.668;23.386;2022-12-24T00:36:12;24.47;;;10.83;;
27209;SDS011;14721;42.668;23.386;2022-12-24T00:38:39;21.43;;;11.30;;
27209;SDS011;14721;42.668;23.386;2022-12-24T00:41:06;31.90;;;13.80;;
27209;SDS011;14721;42.668;23.386;2022-12-24T00:43:52;29.07;;;13.93;;
27209;SDS011;14721;42.668;23.386;2022-12-24T00:46:20;40.73;;;18.13;;
27209;SDS011;14721;42.668;23.386;2022-12-24T00:48:48;45.10;;;19.50;;
27209;SDS011;14721;42.668;23.386;2022-12-24T00:51:14;46.13;;;21.17;;
27209;SDS011;14721;42.668;23.386;2022-12-24T00:53:49;52.50;;;23.47;;
27209;SDS011;14721;42.668;23.386;2022-12-24T00:56:18;43.20;;;17.47;;
27209;SDS011;14721;42.668;23.386;2022-12-24T00:58:53;39.20;;;18.37;;
27209;SDS011;14721;42.668;23.386;2022-12-24T01:01:20;44.83;;;22.17;;
27209;SDS011;14721;42.668;23.386;2022-12-24T01:06:44;54.97;;;23.83;;
27209;SDS011;14721;42.668;23.386;2022-12-24T01:09:16;50.43;;;22.17;;
27209;SDS011;14721;42.668;23.386;2022-12-24T01:11:42;57.50;;;23.67;;
27209;SDS011;14721;42.668;23.386;2022-12-24T01:14:09;49.83;;;22.63;;
27209;SDS011;14721;42.668;23.386;2022-12-24T01:16:36;54.07;;;24.57;;
27209;SDS011;14721;42.668;23.386;2022-12-24T01:19:04;52.03;;;23.23;;
27209;SDS011;14721;42.668;23.386;2022-12-24T01:21:30;61.70;;;24.80;;
27209;SDS011;14721;42.668;23.386;2022-12-24T01:23:59;50.40;;;22.70;;
27209;SDS011;14721;42.668;23.386;2022-12-24T01:26:28;44.17;;;19.30;;
27209;SDS011;14721;42.668;23.386;2022-12-24T01:28:56;49.33;;;21.30;;
27209;SDS011;14721;42.668;23.386;2022-12-24T01:31:24;49.37;;;20.07;;
27209;SDS011;14721;42.668;23.386;2022-12-24T01:33:50;42.23;;;20.53;;
27209;SDS011;14721;42.668;23.386;2022-12-24T01:36:16;42.97;;;20.17;;
27209;SDS011;14721;42.668;23.386;2022-12-24T01:38:42;43.77;;;21.20;;
27209;SDS011;14721;42.668;23.386;2022-12-24T01:41:18;45.10;;;20.43;;
27209;SDS011;14721;42.668;23.386;2022-12-24T01:44:20;48.80;;;20.80;;
27209;SDS011;14721;42.668;23.386;2022-12-24T01:46:51;38.33;;;19.80;;
27209;SDS011;14721;42.668;23.386;2022-12-24T01:49:32;47.87;;;18.83;;
27209;SDS011;14721;42.668;23.386;2022-12-24T01:52:02;35.87;;;17.67;;
27209;SDS011;14721;42.668;23.386;2022-12-24T01:54:33;51.30;;;19.47;;
27209;SDS011;14721;42.668;23.386;2022-12-24T01:57:04;46.07;;;19.87;;
27209;SDS011;14721;42.668;23.386;2022-12-24T01:59:35;44.67;;;19.13;;
27209;SDS011;14721;42.668;23.386;2022-12-24T02:02:02;34.97;;;17.57;;
27209;SDS011;14721;42.668;23.386;2022-12-24T02:04:35;44.77;;;19.57;;
27209;SDS011;14721;42.668;23.386;2022-12-24T02:07:05;41.40;;;19.23;;
27209;SDS011;14721;42.668;23.386;2022-12-24T02:09:32;48.53;;;21.93;;
27209;SDS011;14721;42.668;23.386;2022-12-24T02:12:02;47.50;;;21.10;;
27209;SDS011;14721;42.668;23.386;2022-12-24T02:14:30;38.30;;;18.67;;
27209;SDS011;14721;42.668;23.386;2022-12-24T02:22:31;42.40;;;19.67;;
27209;SDS011;14721;42.668;23.386;2022-12-24T02:30:21;45.60;;;21.90;;
27209;SDS011;14721;42.668;23.386;2022-12-24T02:38:05;40.57;;;18.83;;
27209;SDS011;14721;42.668;23.386;2022-12-24T02:40:45;47.10;;;19.93;;
27209;SDS011;14721;42.668;23.386;2022-12-24T02:43:18;42.20;;;20.13;;
27209;SDS011;14721;42.668;23.386;2022-12-24T02:45:48;42.27;;;21.13;;
27209;SDS011;14721;42.668;23.386;2022-12-24T02:48:18;39.33;;;19.53;;
27209;SDS011;14721;42.668;23.386;2022-12-24T02:51:03;44.13;;;20.70;;
27209;SDS011;14721;42.668;23.386;2022-12-24T02:53:30;43.73;;;18.97;;
27209;SDS011;14721;42.668;23.386;2022-12-24T03:01:04;39.63;;;18.97;;
27209;SDS011;14721;42.668;23.386;2022-12-24T03:11:40;42.40;;;17.43;;
27209;SDS011;14721;42.668;23.386;2022-12-24T03:14:14;40.97;;;18.80;;
27209;SDS011;14721;42.668;23.386;2022-12-24T03:16:41;53.03;;;20.83;;
27209;SDS011;14721;42.668;23.386;2022-12-24T03:19:08;47.40;;;21.73;;
27209;SDS011;14721;42.668;23.386;2022-12-24T03:21:34;110.87;;;40.67;;
27209;SDS011;14721;42.668;23.386;2022-12-24T03:24:03;125.40;;;56.40;;
27209;SDS011;14721;42.668;23.386;2022-12-24T03:26:32;75.23;;;33.17;;
27209;SDS011;14721;42.668;23.386;2022-12-24T03:28:59;65.93;;;31.23;;
27209;SDS011;14721;42.668;23.386;2022-12-24T03:31:24;102.70;;;40.97;;
27209;SDS011;14721;42.668;23.386;2022-12-24T03:33:50;92.30;;;40.67;;
27209;SDS011;14721;42.668;23.386;2022-12-24T03:36:17;98.77;;;42.23;;
27209;SDS011;14721;42.668;23.386;2022-12-24T03:38:43;99.27;;;42.77;;
27209;SDS011;14721;42.668;23.386;2022-12-24T03:41:09;112.70;;;46.97;;
27209;SDS011;14721;42.668;23.386;2022-12-24T03:43:36;96.63;;;43.50;;
27209;SDS011;14721;42.668;23.386;2022-12-24T03:46:02;120.40;;;47.40;;
27209;SDS011;14721;42.668;23.386;2022-12-24T03:48:31;111.17;;;47.27;;
27209;SDS011;14721;42.668;23.386;2022-12-24T03:50:57;100.83;;;42.00;;
27209;SDS011;14721;42.668;23.386;2022-12-24T03:53:23;117.07;;;47.17;;
27209;SDS011;14721;42.668;23.386;2022-12-24T03:55:50;108.03;;;45.60;;
27209;SDS011;14721;42.668;23.386;2022-12-24T03:58:18;96.63;;;45.20;;
27209;SDS011;14721;42.668;23.386;2022-12-24T04:00:44;105.87;;;39.53;;
27209;SDS011;14721;42.668;23.386;2022-12-24T04:03:10;102.57;;;42.20;;
27209;SDS011;14721;42.668;23.386;2022-12-24T04:05:36;88.37;;;43.30;;
27209;SDS011;14721;42.668;23.386;2022-12-24T04:10:47;114.37;;;45.17;;
27209;SDS011;14721;42.668;23.386;2022-12-24T04:13:13;112.10;;;45.87;;
27209;SDS011;14721;42.668;23.386;2022-12-24T04:15:39;105.63;;;42.37;;
27209;SDS011;14721;42.668;23.386;2022-12-24T04:18:04;98.57;;;43.90;;
27209;SDS011;14721;42.668;23.386;2022-12-24T04:20:30;100.37;;;45.03;;
27209;SDS011;14721;42.668;23.386;2022-12-24T04:22:56;108.43;;;44.03;;
27209;SDS011;14721;42.668;23.386;2022-12-24T04:25:21;99.40;;;41.13;;
27209;SDS011;14721;42.668;23.386;2022-12-24T04:27:48;97.67;;;40.03;;
27209;SDS011;14721;42.668;23.386;2022-12-24T04:30:14;86.07;;;40.77;;
27209;SDS011;14721;42.668;23.386;2022-12-24T04:32:41;93.50;;;42.93;;
27209;SDS011;14721;42.668;23.386;2022-12-24T04:35:07;82.30;;;34.70;;
27209;SDS011;14721;42.668;23.386;2022-12-24T04:37:33;78.40;;;33.37;;
27209;SDS011;14721;42.668;23.386;2022-12-24T04:39:59;83.20;;;36.83;;
27209;SDS011;14721;42.668;23.386;2022-12-24T04:42:25;83.87;;;36.93;;
27209;SDS011;14721;42.668;23.386;2022-12-24T04:44:52;73.37;;;36.20;;
27209;SDS011;14721;42.668;23.386;2022-12-24T04:47:19;86.20;;;37.57;;
27209;SDS011;14721;42.668;23.386;2022-12-24T04:49:48;77.00;;;32.10;;
27209;SDS011;14721;42.668;23.386;2022-12-24T04:52:17;81.93;;;35.10;;
27209;SDS011;14721;42.668;23.386;2022-12-24T04:54:44;77.07;;;34.30;;
27209;SDS011;14721;42.668;23.386;2022-12-24T04:57:10;81.80;;;34.07;;
27209;SDS011;14721;42.668;23.386;2022-12-24T04:59:39;74.20;;;32.77;;
27209;SDS011;14721;42.668;23.386;2022-12-24T05:02:11;81.60;;;35.63;;
27209;SDS011;14721;42.668;23.386;2022-12-24T05:04:37;79.10;;;33.23;;
27209;SDS011;14721;42.668;23.386;2022-12-24T05:07:10;89.33;;;34.10;;
27209;SDS011;14721;42.668;23.386;2022-12-24T05:09:35;74.47;;;35.57;;
27209;SDS011;14721;42.668;23.386;2022-12-24T05:12:02;74.97;;;34.00;;
27209;SDS011;14721;42.668;23.386;2022-12-24T05:14:30;83.57;;;37.13;;
27209;SDS011;14721;42.668;23.386;2022-12-24T05:16:56;82.97;;;36.53;;
27209;SDS011;14721;42.668;23.386;2022-12-24T05:19:23;85.90;;;38.67;;
27209;SDS011;14721;42.668;23.386;2022-12-24T05:21:50;86.13;;;37.37;;
27209;SDS011;14721;42.668;23.386;2022-12-24T05:24:35;89.87;;;36.50;;
27209;SDS011;14721;42.668;23.386;2022-12-24T05:27:28;109.40;;;46.30;;
27209;SDS011;14721;42.668;23.386;2022-12-24T05:29:59;99.00;;;41.23;;
27209;SDS011;14721;42.668;23.386;2022-12-24T05:32:38;99.07;;;38.53;;
27209;SDS011;14721;42.668;23.386;2022-12-24T05:35:05;112.63;;;46.73;;
27209;SDS011;14721;42.668;23.386;2022-12-24T05:37:32;156.40;;;66.63;;
27209;SDS011;14721;42.668;23.386;2022-12-24T05:39:58;150.13;;;56.50;;
27209;SDS011;14721;42.668;23.386;2022-12-24T05:42:24;170.20;;;61.47;;
27209;SDS011;14721;42.668;23.386;2022-12-24T05:44:49;129.20;;;52.83;;
27209;SDS011;14721;42.668;23.386;2022-12-24T05:47:16;112.20;;;48.70;;
27209;SDS011;14721;42.668;23.386;2022-12-24T05:49:42;105.43;;;45.90;;
27209;SDS011;14721;42.668;23.386;2022-12-24T05:52:08;100.93;;;42.60;;
27209;SDS011;14721;42.668;23.386;2022-12-24T05:54:34;102.77;;;44.30;;
27209;SDS011;14721;42.668;23.386;2022-12-24T05:57:01;103.57;;;42.80;;
27209;SDS011;14721;42.668;23.386;2022-12-24T05:59:31;102.63;;;40.57;;
27209;SDS011;14721;42.668;23.386;2022-12-24T06:01:58;93.07;;;36.40;;
27209;SDS011;14721;42.668;23.386;2022-12-24T06:04:25;103.70;;;38.50;;
27209;SDS011;14721;42.668;23.386;2022-12-24T06:06:51;98.23;;;37.70;;
27209;SDS011;14721;42.668;23.386;2022-12-24T06:09:17;91.83;;;39.53;;
27209;SDS011;14721;42.668;23.386;2022-12-24T06:11:46;80.60;;;35.63;;
27209;SDS011;14721;42.668;23.386;2022-12-24T06:14:12;85.53;;;35.60;;
27209;SDS011;14721;42.668;23.386;2022-12-24T06:16:38;81.70;;;36.30;;
27209;SDS011;14721;42.668;23.386;2022-12-24T06:19:04;71.87;;;31.73;;
27209;SDS011;14721;42.668;23.386;2022-12-24T06:24:00;69.90;;;31.57;;
27209;SDS011;14721;42.668;23.386;2022-12-24T06:26:26;69.97;;;31.60;;
27209;SDS011;14721;42.668;23.386;2022-12-24T06:28:52;75.03;;;31.40;;
27209;SDS011;14721;42.668;23.386;2022-12-24T06:31:19;75.73;;;32.43;;
27209;SDS011;14721;42.668;23.386;2022-12-24T06:33:48;69.87;;;30.67;;
27209;SDS011;14721;42.668;23.386;2022-12-24T06:36:16;78.87;;;32.53;;
27209;SDS011;14721;42.668;23.386;2022-12-24T06:38:45;73.00;;;31.83;;
27209;SDS011;14721;42.668;23.386;2022-12-24T06:41:15;76.13;;;30.83;;
27209;SDS011;14721;42.668;23.386;2022-12-24T06:43:45;72.43;;;29.33;;
27209;SDS011;14721;42.668;23.386;2022-12-24T06:46:11;63.97;;;28.87;;
27209;SDS011;14721;42.668;23.386;2022-12-24T06:48:42;76.23;;;34.17;;
27209;SDS011;14721;42.668;23.386;2022-12-24T06:51:08;80.33;;;30.93;;
27209;SDS011;14721;42.668;23.386;2022-12-24T06:53:37;76.67;;;32.20;;
27209;SDS011;14721;42.668;23.386;2022-12-24T06:56:08;71.33;;;31.67;;
27209;SDS011;14721;42.668;23.386;2022-12-24T06:58:36;63.37;;;30.60;;
27209;SDS011;14721;42.668;23.386;2022-12-24T07:01:04;82.97;;;32.13;;
27209;SDS011;14721;42.668;23.386;2022-12-24T07:03:32;75.73;;;31.73;;
27209;SDS011;14721;42.668;23.386;2022-12-24T07:05:59;64.47;;;28.70;;
27209;SDS011;14721;42.668;23.386;2022-12-24T07:08:26;65.43;;;30.20;;
27209;SDS011;14721;42.668;23.386;2022-12-24T07:10:57;56.90;;;25.17;;
27209;SDS011;14721;42.668;23.386;2022-12-24T07:13:23;48.07;;;23.37;;
27209;SDS011;14721;42.668;23.386;2022-12-24T07:15:59;40.57;;;20.30;;
27209;SDS011;14721;42.668;23.386;2022-12-24T07:18:30;45.07;;;21.73;;
27209;SDS011;14721;42.668;23.386;2022-12-24T07:20:56;62.47;;;22.10;;
27209;SDS011;14721;42.668;23.386;2022-12-24T07:23:22;45.93;;;21.90;;
27209;SDS011;14721;42.668;23.386;2022-12-24T07:25:49;43.07;;;20.93;;
27209;SDS011;14721;42.668;23.386;2022-12-24T07:28:14;40.83;;;20.53;;
27209;SDS011;14721;42.668;23.386;2022-12-24T07:30:41;40.57;;;22.13;;
27209;SDS011;14721;42.668;23.386;2022-12-24T07:33:07;37.70;;;19.17;;
27209;SDS011;14721;42.668;23.386;2022-12-24T07:35:33;40.27;;;18.90;;
27209;SDS011;14721;42.668;23.386;2022-12-24T07:37:59;39.10;;;19.33;;
27209;SDS011;14721;42.668;23.386;2022-12-24T07:40:26;39.13;;;18.83;;
27209;SDS011;14721;42.668;23.386;2022-12-24T07:42:53;41.63;;;19.57;;
27209;SDS011;14721;42.668;23.386;2022-12-24T07:45:18;47.27;;;19.30;;
27209;SDS011;14721;42.668;23.386;2022-12-24T07:47:44;36.83;;;17.47;;
27209;SDS011;14721;42.668;23.386;2022-12-24T07:50:10;38.00;;;18.70;;
27209;SDS011;14721;42.668;23.386;2022-12-24T07:52:42;39.50;;;18.10;;
27209;SDS011;14721;42.668;23.386;2022-12-24T07:55:08;38.80;;;17.40;;
27209;SDS011;14721;42.668;23.386;2022-12-24T07:57:34;43.73;;;20.67;;
27209;SDS011;14721;42.668;23.386;2022-12-24T08:00:00;39.60;;;18.47;;
27209;SDS011;14721;42.668;23.386;2022-12-24T08:02:26;35.13;;;19.53;;
27209;SDS011;14721;42.668;23.386;2022-12-24T08:07:22;39.03;;;17.07;;
27209;SDS011;14721;42.668;23.386;2022-12-24T08:09:48;36.13;;;16.37;;
27209;SDS011;14721;42.668;23.386;2022-12-24T08:12:14;35.83;;;18.10;;
27209;SDS011;14721;42.668;23.386;2022-12-24T08:14:40;34.87;;;16.90;;
27209;SDS011;14721;42.668;23.386;2022-12-24T08:17:05;34.77;;;15.87;;
27209;SDS011;14721;42.668;23.386;2022-12-24T08:19:31;30.63;;;15.23;;
27209;SDS011;14721;42.668;23.386;2022-12-24T08:21:57;34.70;;;16.00;;
27209;SDS011;14721;42.668;23.386;2022-12-24T08:24:25;31.30;;;15.30;;
27209;SDS011;14721;42.668;23.386;2022-12-24T08:26:51;29.00;;;14.53;;
27209;SDS011;14721;42.668;23.386;2022-12-24T08:29:21;28.97;;;14.40;;
27209;SDS011;14721;42.668;23.386;2022-12-24T08:31:47;32.60;;;15.43;;
27209;SDS011;14721;42.668;23.386;2022-12-24T08:34:13;35.43;;;14.67;;
27209;SDS011;14721;42.668;23.386;2022-12-24T08:36:39;31.30;;;14.70;;
27209;SDS011;14721;42.668;23.386;2022-12-24T08:39:05;28.70;;;15.20;;
27209;SDS011;14721;42.668;23.386;2022-12-24T08:41:33;26.23;;;13.27;;
27209;SDS011;14721;42.668;23.386;2022-12-24T08:43:59;31.30;;;13.43;;
27209;SDS011;14721;42.668;23.386;2022-12-24T08:46:25;33.70;;;14.13;;
27209;SDS011;14721;42.668;23.386;2022-12-24T08:48:51;30.40;;;15.40;;
27209;SDS011;14721;42.668;23.386;2022-12-24T08:51:17;29.47;;;14.67;;
27209;SDS011;14721;42.668;23.386;2022-12-24T08:53:43;34.03;;;14.73;;
27209;SDS011;14721;42.668;23.386;2022-12-24T08:56:09;33.03;;;16.67;;
27209;SDS011;14721;42.668;23.386;2022-12-24T08:58:36;29.83;;;14.37;;
27209;SDS011;14721;42.668;23.386;2022-12-24T09:01:09;34.60;;;16.73;;
27209;SDS011;14721;42.668;23.386;2022-12-24T09:03:37;37.63;;;15.50;;
27209;SDS011;14721;42.668;23.386;2022-12-24T09:06:04;29.77;;;14.73;;
27209;SDS011;14721;42.668;23.386;2022-12-24T09:08:31;38.03;;;15.33;;
27209;SDS011;14721;42.668;23.386;2022-12-24T09:11:08;40.73;;;16.23;;
27209;SDS011;14721;42.668;23.386;2022-12-24T09:13:36;40.47;;;16.47;;
27209;SDS011;14721;42.668;23.386;2022-12-24T09:16:03;32.47;;;15.37;;
27209;SDS011;14721;42.668;23.386;2022-12-24T09:18:31;35.07;;;17.17;;
27209;SDS011;14721;42.668;23.386;2022-12-24T09:21:04;33.30;;;16.30;;
27209;SDS011;14721;42.668;23.386;2022-12-24T09:23:31;37.60;;;17.53;;
27209;SDS011;14721;42.668;23.386;2022-12-24T09:26:05;37.13;;;18.30;;
27209;SDS011;14721;42.668;23.386;2022-12-24T09:28:36;39.43;;;18.57;;
27209;SDS011;14721;42.668;23.386;2022-12-24T09:31:03;41.43;;;17.60;;
27209;SDS011;14721;42.668;23.386;2022-12-24T09:33:34;37.67;;;17.70;;
27209;SDS011;14721;42.668;23.386;2022-12-24T09:36:01;42.57;;;20.00;;
27209;SDS011;14721;42.668;23.386;2022-12-24T09:38:28;47.20;;;23.17;;
27209;SDS011;14721;42.668;23.386;2022-12-24T09:41:00;49.13;;;24.20;;
27209;SDS011;14721;42.668;23.386;2022-12-24T09:43:27;52.67;;;22.30;;
27209;SDS011;14721;42.668;23.386;2022-12-24T09:48:47;53.40;;;24.97;;
27209;SDS011;14721;42.668;23.386;2022-12-24T09:54:00;49.53;;;24.60;;
27209;SDS011;14721;42.668;23.386;2022-12-24T09:56:31;52.83;;;23.50;;
27209;SDS011;14721;42.668;23.386;2022-12-24T09:59:03;49.20;;;22.47;;
27209;SDS011;14721;42.668;23.386;2022-12-24T10:01:31;52.10;;;22.63;;
27209;SDS011;14721;42.668;23.386;2022-12-24T10:04:18;47.63;;;22.97;;
27209;SDS011;14721;42.668;23.386;2022-12-24T10:07:01;43.47;;;20.00;;
27209;SDS011;14721;42.668;23.386;2022-12-24T10:09:37;55.67;;;24.07;;
27209;SDS011;14721;42.668;23.386;2022-12-24T10:12:17;42.87;;;19.93;;
27209;SDS011;14721;42.668;23.386;2022-12-24T10:20:29;50.57;;;21.40;;
27209;SDS011;14721;42.668;23.386;2022-12-24T10:23:19;49.83;;;20.30;;
27209;SDS011;14721;42.668;23.386;2022-12-24T10:26:00;45.47;;;21.10;;
27209;SDS011;14721;42.668;23.386;2022-12-24T10:28:47;44.80;;;21.37;;
27209;SDS011;14721;42.668;23.386;2022-12-24T10:31:18;46.53;;;20.17;;
27209;SDS011;14721;42.668;23.386;2022-12-24T10:33:56;50.20;;;23.97;;
27209;SDS011;14721;42.668;23.386;2022-12-24T10:36:29;46.10;;;20.37;;
27209;SDS011;14721;42.668;23.386;2022-12-24T10:41:41;47.47;;;21.83;;
27209;SDS011;14721;42.668;23.386;2022-12-24T10:44:08;40.23;;;19.33;;
27209;SDS011;14721;42.668;23.386;2022-12-24T10:46:39;43.37;;;19.83;;
27209;SDS011;14721;42.668;23.386;2022-12-24T10:49:29;47.40;;;21.23;;
27209;SDS011;14721;42.668;23.386;2022-12-24T10:51:59;44.83;;;20.23;;
27209;SDS011;14721;42.668;23.386;2022-12-24T10:54:37;41.97;;;20.87;;
27209;SDS011;14721;42.668;23.386;2022-12-24T10:57:41;43.80;;;19.50;;
27209;SDS011;14721;42.668;23.386;2022-12-24T11:00:26;47.33;;;22.87;;
27209;SDS011;14721;42.668;23.386;2022-12-24T11:03:38;52.47;;;21.33;;
27209;SDS011;14721;42.668;23.386;2022-12-24T11:06:14;47.50;;;22.00;;
27209;SDS011;14721;42.668;23.386;2022-12-24T11:08:45;47.03;;;21.57;;
27209;SDS011;14721;42.668;23.386;2022-12-24T11:13:40;45.53;;;21.20;;
27209;SDS011;14721;42.668;23.386;2022-12-24T11:18:58;51.03;;;22.80;;
27209;SDS011;14721;42.668;23.386;2022-12-24T11:21:31;48.87;;;21.67;;
27209;SDS011;14721;42.668;23.386;2022-12-24T11:26:38;50.33;;;21.57;;
27209;SDS011;14721;42.668;23.386;2022-12-24T11:29:26;46.27;;;24.80;;
27209;SDS011;14721;42.668;23.386;2022-12-24T11:32:13;45.90;;;20.77;;
27209;SDS011;14721;42.668;23.386;2022-12-24T11:34:43;51.37;;;23.23;;
27209;SDS011;14721;42.668;23.386;2022-12-24T11:37:18;44.43;;;22.17;;
27209;SDS011;14721;42.668;23.386;2022-12-24T11:39:52;47.77;;;21.53;;
27209;SDS011;14721;42.668;23.386;2022-12-24T11:42:35;46.70;;;22.60;;
27209;SDS011;14721;42.668;23.386;2022-12-24T11:45:13;42.63;;;22.53;;
27209;SDS011;14721;42.668;23.386;2022-12-24T11:47:46;45.17;;;21.87;;
27209;SDS011;14721;42.668;23.386;2022-12-24T11:50:19;41.40;;;21.13;;
27209;SDS011;14721;42.668;23.386;2022-12-24T11:52:54;41.17;;;20.13;;
27209;SDS011;14721;42.668;23.386;2022-12-24T11:58:36;40.50;;;20.33;;
27209;SDS011;14721;42.668;23.386;2022-12-24T12:01:20;37.47;;;19.10;;
27209;SDS011;14721;42.668;23.386;2022-12-24T12:04:17;40.47;;;19.57;;
27209;SDS011;14721;42.668;23.386;2022-12-24T12:06:45;42.83;;;20.53;;
27209;SDS011;14721;42.668;23.386;2022-12-24T12:09:23;42.20;;;21.47;;
27209;SDS011;14721;42.668;23.386;2022-12-24T12:11:59;37.53;;;18.90;;
27209;SDS011;14721;42.668;23.386;2022-12-24T12:14:39;39.03;;;17.87;;
27209;SDS011;14721;42.668;23.386;2022-12-24T12:19:57;38.80;;;22.03;;
27209;SDS011;14721;42.668;23.386;2022-12-24T12:22:38;52.17;;;20.83;;
27209;SDS011;14721;42.668;23.386;2022-12-24T12:25:23;38.77;;;20.07;;
27209;SDS011;14721;42.668;23.386;2022-12-24T12:27:55;44.63;;;19.70;;
27209;SDS011;14721;42.668;23.386;2022-12-24T12:30:27;44.00;;;20.57;;
27209;SDS011;14721;42.668;23.386;2022-12-24T12:33:01;45.27;;;19.60;;
27209;SDS011;14721;42.668;23.386;2022-12-24T12:35:39;36.20;;;18.87;;
27209;SDS011;14721;42.668;23.386;2022-12-24T12:38:21;46.23;;;20.40;;
27209;SDS011;14721;42.668;23.386;2022-12-24T12:40:54;37.67;;;17.00;;
27209;SDS011;14721;42.668;23.386;2022-12-24T12:43:55;35.00;;;17.90;;
27209;SDS011;14721;42.668;23.386;2022-12-24T12:51:49;40.33;;;17.13;;
27209;SDS011;14721;42.668;23.386;2022-12-24T12:57:16;34.47;;;17.87;;
27209;SDS011;14721;42.668;23.386;2022-12-24T12:59:49;37.13;;;17.90;;
27209;SDS011;14721;42.668;23.386;2022-12-24T13:02:51;38.30;;;18.80;;
27209;SDS011;14721;42.668;23.386;2022-12-24T13:11:37;42.63;;;19.97;;
27209;SDS011;14721;42.668;23.386;2022-12-24T13:20:58;46.03;;;21.23;;
27209;SDS011;14721;42.668;23.386;2022-12-24T13:23:01;42.50;;;20.20;;
27209;SDS011;14721;42.668;23.386;2022-12-24T13:25:37;42.60;;;20.97;;
27209;SDS011;14721;42.668;23.386;2022-12-24T13:28:15;48.97;;;20.70;;
27209;SDS011;14721;42.668;23.386;2022-12-24T13:30:48;44.53;;;20.47;;
27209;SDS011;14721;42.668;23.386;2022-12-24T13:34:08;38.87;;;21.07;;
27209;SDS011;14721;42.668;23.386;2022-12-24T13:36:21;42.07;;;20.50;;
27209;SDS011;14721;42.668;23.386;2022-12-24T13:39:18;39.73;;;20.67;;
27209;SDS011;14721;42.668;23.386;2022-12-24T13:41:51;50.57;;;21.90;;
27209;SDS011;14721;42.668;23.386;2022-12-24T13:44:20;54.37;;;23.37;;
27209;SDS011;14721;42.668;23.386;2022-12-24T13:49:43;45.93;;;21.17;;
27209;SDS011;14721;42.668;23.386;2022-12-24T13:52:20;43.93;;;23.47;;
27209;SDS011;14721;42.668;23.386;2022-12-24T14:02:38;43.27;;;23.10;;
27209;SDS011;14721;42.668;23.386;2022-12-24T14:05:37;48.03;;;24.33;;
27209;SDS011;14721;42.668;23.386;2022-12-24T14:08:25;52.13;;;24.77;;
27209;SDS011;14721;42.668;23.386;2022-12-24T14:10:57;46.90;;;23.03;;
27209;SDS011;14721;42.668;23.386;2022-12-24T14:16:06;51.80;;;23.80;;
27209;SDS011;14721;42.668;23.386;2022-12-24T14:24:49;42.10;;;22.57;;
27209;SDS011;14721;42.668;23.386;2022-12-24T14:27:32;45.57;;;24.57;;
27209;SDS011;14721;42.668;23.386;2022-12-24T14:30:20;53.93;;;25.57;;
27209;SDS011;14721;42.668;23.386;2022-12-24T14:32:53;55.83;;;25.47;;
27209;SDS011;14721;42.668;23.386;2022-12-24T14:35:28;50.50;;;25.17;;
27209;SDS011;14721;42.668;23.386;2022-12-24T14:40:33;55.37;;;27.37;;
27209;SDS011;14721;42.668;23.386;2022-12-24T14:49:14;59.10;;;28.20;;
27209;SDS011;14721;42.668;23.386;2022-12-24T14:54:42;58.53;;;28.50;;
27209;SDS011;14721;42.668;23.386;2022-12-24T14:57:13;62.27;;;29.87;;
27209;SDS011;14721;42.668;23.386;2022-12-24T14:59:51;65.60;;;31.30;;
27209;SDS011;14721;42.668;23.386;2022-12-24T15:05:10;62.77;;;30.77;;
27209;SDS011;14721;42.668;23.386;2022-12-24T15:08:02;54.80;;;27.13;;
27209;SDS011;14721;42.668;23.386;2022-12-24T15:10:33;58.07;;;28.90;;
27209;SDS011;14721;42.668;23.386;2022-12-24T15:13:07;60.47;;;27.63;;
27209;SDS011;14721;42.668;23.386;2022-12-24T15:15:41;61.60;;;28.60;;
27209;SDS011;14721;42.668;23.386;2022-12-24T15:18:13;54.27;;;27.07;;
27209;SDS011;14721;42.668;23.386;2022-12-24T15:20:47;61.10;;;30.27;;
27209;SDS011;14721;42.668;23.386;2022-12-24T15:23:17;62.77;;;29.93;;
27209;SDS011;14721;42.668;23.386;2022-12-24T15:25:47;52.87;;;27.27;;
27209;SDS011;14721;42.668;23.386;2022-12-24T15:28:21;59.37;;;29.13;;
27209;SDS011;14721;42.668;23.386;2022-12-24T15:30:48;54.87;;;27.03;;
27209;SDS011;14721;42.668;23.386;2022-12-24T15:33:34;63.33;;;28.40;;
27209;SDS011;14721;42.668;23.386;2022-12-24T15:36:01;62.20;;;26.80;;
27209;SDS011;14721;42.668;23.386;2022-12-24T15:40:55;33.40;;;15.20;;
27209;SDS011;14721;42.668;23.386;2022-12-24T15:43:23;28.13;;;13.37;;
27209;SDS011;14721;42.668;23.386;2022-12-24T15:45:52;29.17;;;14.40;;
27209;SDS011;14721;42.668;23.386;2022-12-24T15:48:27;41.93;;;21.23;;
27209;SDS011;14721;42.668;23.386;2022-12-24T15:50:59;70.50;;;30.70;;
27209;SDS011;14721;42.668;23.386;2022-12-24T15:53:32;59.47;;;29.17;;
27209;SDS011;14721;42.668;23.386;2022-12-24T15:56:03;62.57;;;28.07;;
27209;SDS011;14721;42.668;23.386;2022-12-24T15:58:33;57.80;;;29.07;;
27209;SDS011;14721;42.668;23.386;2022-12-24T16:06:16;62.40;;;29.93;;
27209;SDS011;14721;42.668;23.386;2022-12-24T16:08:45;66.27;;;30.70;;
27209;SDS011;14721;42.668;23.386;2022-12-24T16:19:03;65.27;;;31.40;;
27209;SDS011;14721;42.668;23.386;2022-12-24T16:24:18;71.13;;;34.17;;
27209;SDS011;14721;42.668;23.386;2022-12-24T16:26:46;65.00;;;31.10;;
27209;SDS011;14721;42.668;23.386;2022-12-24T16:29:15;74.67;;;33.93;;
27209;SDS011;14721;42.668;23.386;2022-12-24T16:31:56;75.90;;;35.47;;
27209;SDS011;14721;42.668;23.386;2022-12-24T16:34:24;81.03;;;35.13;;
27209;SDS011;14721;42.668;23.386;2022-12-24T16:36:53;78.50;;;34.13;;
27209;SDS011;14721;42.668;23.386;2022-12-24T16:39:20;73.00;;;35.83;;
27209;SDS011;14721;42.668;23.386;2022-12-24T16:41:53;85.67;;;39.47;;
27209;SDS011;14721;42.668;23.386;2022-12-24T16:44:41;74.20;;;34.87;;
27209;SDS011;14721;42.668;23.386;2022-12-24T16:47:18;72.20;;;36.50;;
27209;SDS011;14721;42.668;23.386;2022-12-24T16:49:56;82.23;;;38.63;;
27209;SDS011;14721;42.668;23.386;2022-12-24T16:52:25;66.93;;;31.80;;